Time;durP1;ratioP1;P1;durP2;ratioP2;P2;SDS_P1;SDS_P2;PMS_P1;PMS_P2;Temp;Humidity;BMP_temperature;BMP_pressure;BME280_temperature;BME280_humidity;BME280_pressure;Samples;Min_cycle;Max_cycle;Signal;HPM_P1;HPM_P2
2021/05/31 00:00:08;;;;;;;8.40;6.83;;;11.30;99.90;;;;;;5037250;28;20495;-49
2021/05/31 00:02:40;;;;;;;8.77;7.60;;;11.30;99.90;;;;;;5034159;28;20463;-45
2021/05/31 00:05:08;;;;;;;7.80;7.00;;;11.30;99.90;;;;;;5032992;28;20467;-45
2021/05/31 00:07:39;;;;;;;9.00;6.70;;;11.20;99.90;;;;;;5036962;28;20852;-45
2021/05/31 00:10:09;;;;;;;8.57;7.67;;;11.10;99.90;;;;;;5037024;28;20840;-48
2021/05/31 00:49:36;;;;;;;7.17;6.47;;;10.50;99.90;;;;;;5035817;28;20453;-51
2021/05/31 00:52:07;;;;;;;7.60;6.83;;;10.40;99.90;;;;;;5037647;28;20763;-48
2021/05/31 00:54:34;;;;;;;8.30;7.50;;;10.40;99.90;;;;;;5037177;28;20495;-47
2021/05/31 00:57:04;;;;;;;7.50;6.80;;;10.30;99.90;;;;;;5036720;28;20467;-44
2021/05/31 00:59:31;;;;;;;7.80;6.67;;;10.30;99.90;;;;;;5037428;28;20959;-44
2021/05/31 01:01:58;;;;;;;7.20;6.53;;;10.30;99.90;;;;;;5037665;28;20458;-44
2021/05/31 01:04:25;;;;;;;6.47;5.97;;;10.30;99.90;;;;;;5035454;28;20467;-44
2021/05/31 01:07:00;;;;;;;7.97;7.17;;;10.30;99.90;;;;;;5026012;28;20471;-48
2021/05/31 01:09:33;;;;;;;7.33;6.67;;;10.20;99.90;;;;;;5028536;28;20721;-44
2021/05/31 01:12:11;;;;;;;7.13;6.43;;;10.30;99.90;;;;;;5035659;28;20494;-47
2021/05/31 01:14:46;;;;;;;11.17;7.03;;;10.20;99.90;;;;;;5038183;28;20494;-44
2021/05/31 01:17:18;;;;;;;8.97;8.07;;;10.20;99.90;;;;;;5040424;28;20462;-44
2021/05/31 01:20:05;;;;;;;8.97;6.60;;;10.20;99.90;;;;;;5041153;28;20467;-47
2021/05/31 01:22:35;;;;;;;10.53;6.60;;;10.10;99.90;;;;;;5040111;28;20891;-48
2021/05/31 01:25:13;;;;;;;9.27;6.60;;;10.10;99.90;;;;;;5039651;28;20467;-50
2021/05/31 01:27:50;;;;;;;9.60;6.60;;;10.10;99.90;;;;;;5040319;28;20482;-44
2021/05/31 01:30:22;;;;;;;7.00;6.40;;;10.10;99.90;;;;;;5040318;28;20482;-47
2021/05/31 01:32:52;;;;;;;7.13;6.40;;;10.10;99.90;;;;;;5039773;28;20438;-45
2021/05/31 01:35:24;;;;;;;8.73;7.93;;;10.10;99.90;;;;;;5040376;28;20463;-45
2021/05/31 01:37:55;;;;;;;7.93;6.50;;;10.10;99.90;;;;;;5039764;28;20482;-46
2021/05/31 01:40:23;;;;;;;7.20;6.10;;;10.00;99.90;;;;;;5039399;28;20459;-46
2021/05/31 01:42:51;;;;;;;12.27;6.60;;;10.00;99.90;;;;;;5039642;28;20474;-46
2021/05/31 01:45:21;;;;;;;7.13;6.47;;;9.90;99.90;;;;;;5040494;28;20491;-53
2021/05/31 01:47:48;;;;;;;7.53;6.77;;;9.90;99.90;;;;;;5039739;28;20495;-51
2021/05/31 01:50:15;;;;;;;7.53;6.73;;;9.80;99.90;;;;;;5039820;28;20471;-52
2021/05/31 01:52:43;;;;;;;6.87;6.27;;;9.80;99.90;;;;;;5039830;28;20463;-47
2021/05/31 01:55:12;;;;;;;6.80;6.20;;;9.70;99.90;;;;;;5040089;28;20463;-49
2021/05/31 01:57:43;;;;;;;7.07;5.60;;;9.70;99.90;;;;;;5040301;28;20463;-53
2021/05/31 02:00:12;;;;;;;8.23;5.80;;;9.60;99.90;;;;;;5040231;28;20517;-52
2021/05/31 02:02:41;;;;;;;9.40;6.60;;;9.60;99.90;;;;;;5035692;28;20479;-55
2021/05/31 02:05:09;;;;;;;7.97;7.17;;;9.50;99.90;;;;;;5030858;28;20456;-50
2021/05/31 02:07:38;;;;;;;11.50;6.70;;;9.50;99.90;;;;;;5039016;28;20463;-48
2021/05/31 02:10:06;;;;;;;8.10;7.40;;;9.50;99.90;;;;;;5038625;28;20899;-49
2021/05/31 02:12:42;;;;;;;7.00;6.30;;;9.40;99.90;;;;;;5038828;28;20462;-51
2021/05/31 02:15:11;;;;;;;11.13;7.23;;;9.40;99.90;;;;;;5039610;28;20791;-45
2021/05/31 02:17:43;;;;;;;9.53;6.90;;;9.40;99.90;;;;;;5039543;28;20459;-45
2021/05/31 02:20:12;;;;;;;7.40;6.80;;;9.40;99.90;;;;;;5039308;28;20462;-44
2021/05/31 02:22:42;;;;;;;7.50;6.70;;;9.40;99.90;;;;;;5038454;28;20459;-45
2021/05/31 02:25:10;;;;;;;7.63;6.90;;;9.30;99.90;;;;;;5038427;28;20521;-44
2021/05/31 02:27:38;;;;;;;8.10;7.30;;;9.30;99.90;;;;;;5039104;28;20499;-46
2021/05/31 02:30:07;;;;;;;7.60;6.90;;;9.30;99.90;;;;;;5038880;28;20467;-44
2021/05/31 02:32:33;;;;;;;7.70;6.90;;;9.30;99.90;;;;;;5039036;28;20470;-49
2021/05/31 02:35:02;;;;;;;8.73;7.30;;;9.30;99.90;;;;;;5038647;28;20951;-44
2021/05/31 02:37:35;;;;;;;8.17;7.37;;;9.20;99.90;;;;;;5039224;28;20517;-45
2021/05/31 02:40:03;;;;;;;8.50;7.13;;;9.20;99.90;;;;;;5038491;28;20459;-50
2021/05/31 02:42:29;;;;;;;8.30;7.50;;;9.20;99.90;;;;;;5039004;28;20887;-45
2021/05/31 02:44:56;;;;;;;7.60;6.90;;;9.20;99.90;;;;;;5038806;28;20460;-54
2021/05/31 02:47:22;;;;;;;10.10;7.30;;;9.20;99.90;;;;;;5039217;28;20470;-51
2021/05/31 02:49:49;;;;;;;7.77;6.97;;;9.20;99.90;;;;;;5038478;28;20478;-48
2021/05/31 02:52:17;;;;;;;9.27;6.90;;;9.10;99.90;;;;;;5038590;28;20462;-48
2021/05/31 02:54:44;;;;;;;8.10;6.90;;;9.10;99.90;;;;;;5038772;28;20831;-51
2021/05/31 02:57:10;;;;;;;8.13;7.30;;;9.10;99.90;;;;;;5038719;28;20524;-45
2021/05/31 02:59:37;;;;;;;9.23;7.57;;;9.00;99.90;;;;;;5038305;28;20470;-49
2021/05/31 03:02:04;;;;;;;8.33;7.53;;;9.00;99.90;;;;;;5038055;28;20470;-44
2021/05/31 03:04:30;;;;;;;10.90;7.43;;;9.00;99.90;;;;;;5027936;28;20463;-45
2021/05/31 03:06:57;;;;;;;8.77;7.93;;;9.00;99.90;;;;;;5027335;28;20522;-45
2021/05/31 03:09:25;;;;;;;9.07;8.00;;;9.00;99.90;;;;;;5031387;28;20900;-48
2021/05/31 03:11:51;;;;;;;8.80;7.60;;;9.00;99.90;;;;;;5038619;28;20471;-51
2021/05/31 03:14:18;;;;;;;7.83;6.90;;;9.00;99.90;;;;;;5037318;28;20791;-46
2021/05/31 03:16:45;;;;;;;8.77;7.87;;;8.90;99.90;;;;;;5038245;28;20474;-44
2021/05/31 03:19:11;;;;;;;8.60;7.07;;;8.80;99.90;;;;;;5038033;28;20463;-45
2021/05/31 03:21:38;;;;;;;8.47;7.57;;;8.90;99.90;;;;;;5037725;28;20756;-46
2021/05/31 03:24:05;;;;;;;7.83;7.03;;;8.90;99.90;;;;;;5037736;28;20463;-49
2021/05/31 03:26:33;;;;;;;7.20;6.50;;;8.80;99.90;;;;;;5038139;28;20899;-51
2021/05/31 03:29:00;;;;;;;8.67;7.60;;;8.90;99.90;;;;;;5037890;28;20521;-50
2021/05/31 03:31:26;;;;;;;9.03;8.13;;;8.80;99.90;;;;;;5038239;28;20467;-51
2021/05/31 03:33:53;;;;;;;8.43;7.63;;;8.80;99.90;;;;;;5038105;28;20491;-49
2021/05/31 03:36:19;;;;;;;10.77;8.50;;;8.80;99.90;;;;;;5037606;28;20467;-46
2021/05/31 03:38:46;;;;;;;8.13;7.43;;;8.80;99.90;;;;;;5037350;28;20459;-52
2021/05/31 03:41:12;;;;;;;10.63;7.27;;;8.80;99.90;;;;;;5037912;28;20498;-45
2021/05/31 03:43:41;;;;;;;8.87;7.97;;;8.80;99.90;;;;;;5037995;28;20517;-45
2021/05/31 03:46:08;;;;;;;8.50;7.70;;;8.80;99.90;;;;;;5037470;28;20463;-47
2021/05/31 03:48:35;;;;;;;8.57;7.70;;;8.70;99.90;;;;;;5037238;28;20498;-45
2021/05/31 03:51:11;;;;;;;8.13;7.33;;;8.80;99.90;;;;;;5037364;28;20807;-48
2021/05/31 03:53:38;;;;;;;9.20;7.70;;;8.80;99.90;;;;;;5038086;28;20487;-45
2021/05/31 03:56:06;;;;;;;8.63;7.50;;;8.80;99.90;;;;;;5037788;28;20471;-45
2021/05/31 03:58:33;;;;;;;8.40;7.60;;;8.90;99.90;;;;;;5037580;28;20463;-45
2021/05/31 04:01:02;;;;;;;8.57;7.77;;;8.90;99.90;;;;;;5037205;28;20463;-47
2021/05/31 04:03:29;;;;;;;11.20;7.93;;;8.90;99.90;;;;;;5029858;28;20906;-45
2021/05/31 04:06:07;;;;;;;7.33;6.40;;;8.80;99.90;;;;;;5032296;28;20986;-45
2021/05/31 04:11:36;;;;;;;31.47;8.10;;;9.00;99.90;;;;;;5037117;28;20730;-49
2021/05/31 04:14:05;;;;;;;8.97;7.50;;;9.00;99.90;;;;;;5038434;28;20797;-50
2021/05/31 04:16:36;;;;;;;7.43;6.63;;;9.00;99.90;;;;;;5036732;28;20558;-49
2021/05/31 04:19:03;;;;;;;9.00;7.50;;;9.00;99.90;;;;;;5017870;28;20464;-49
2021/05/31 04:21:30;;;;;;;7.63;6.73;;;9.00;99.90;;;;;;5030989;28;20474;-45
2021/05/31 04:23:57;;;;;;;8.60;7.40;;;9.00;99.90;;;;;;5037298;28;20459;-45
2021/05/31 04:26:24;;;;;;;11.90;6.80;;;9.10;99.90;;;;;;5035279;28;20475;-45
2021/05/31 04:28:51;;;;;;;11.57;7.13;;;9.10;99.90;;;;;;5036636;28;20470;-49
2021/05/31 04:31:17;;;;;;;8.40;7.50;;;9.20;99.90;;;;;;5036940;28;20466;-50
2021/05/31 04:33:46;;;;;;;9.80;7.70;;;9.20;99.90;;;;;;5037317;28;20490;-52
2021/05/31 04:36:12;;;;;;;8.67;7.33;;;9.30;99.90;;;;;;5037200;28;20483;-45
2021/05/31 04:38:39;;;;;;;11.20;7.80;;;9.30;99.90;;;;;;5030134;28;20464;-51
2021/05/31 04:41:08;;;;;;;7.90;7.10;;;9.40;99.90;;;;;;5017216;28;20467;-52
2021/05/31 04:43:34;;;;;;;7.40;6.70;;;9.50;99.90;;;;;;5017529;28;20456;-47
2021/05/31 04:46:04;;;;;;;9.73;7.50;;;9.60;99.90;;;;;;5017111;28;20817;-55
2021/05/31 04:48:33;;;;;;;8.80;7.23;;;9.60;99.90;;;;;;5017062;28;20791;-51
2021/05/31 04:51:02;;;;;;;7.27;6.67;;;9.70;99.90;;;;;;5021451;28;20467;-45
2021/05/31 04:53:30;;;;;;;9.80;7.50;;;9.80;99.90;;;;;;5021946;28;20494;-47
2021/05/31 04:55:58;;;;;;;7.93;7.20;;;9.90;99.90;;;;;;5020899;28;20809;-45
2021/05/31 04:58:25;;;;;;;9.00;8.10;;;10.00;99.90;;;;;;5021434;28;20741;-45
2021/05/31 05:00:52;;;;;;;8.93;7.97;;;10.00;99.90;;;;;;5020632;28;20522;-48
2021/05/31 05:03:19;;;;;;;13.33;9.40;;;10.20;99.90;;;;;;5021062;28;20471;-53
2021/05/31 05:05:47;;;;;;;11.60;10.40;;;10.30;99.90;;;;;;5037955;28;20475;-45
2021/05/31 05:08:18;;;;;;;11.73;9.60;;;10.30;99.90;;;;;;5023321;28;20566;-45
2021/05/31 05:10:45;;;;;;;11.73;10.53;;;10.40;99.90;;;;;;5040713;28;20528;-46
2021/05/31 05:13:12;;;;;;;12.47;9.23;;;10.50;99.90;;;;;;5040534;28;20458;-45
2021/05/31 05:15:39;;;;;;;11.30;9.40;;;10.70;99.90;;;;;;5040681;28;21006;-45
2021/05/31 05:18:06;;;;;;;11.20;9.93;;;10.80;99.90;;;;;;5040267;28;20485;-51
2021/05/31 05:20:34;;;;;;;11.03;9.53;;;11.00;99.90;;;;;;5040131;28;20747;-52
2021/05/31 05:23:01;;;;;;;12.33;9.83;;;11.10;99.90;;;;;;5039909;28;20459;-53
2021/05/31 05:25:30;;;;;;;13.77;10.60;;;11.30;99.90;;;;;;5040883;28;20762;-55
2021/05/31 05:27:57;;;;;;;10.83;9.70;;;11.40;99.90;;;;;;5039949;28;20465;-55
2021/05/31 05:30:26;;;;;;;11.13;10.00;;;11.50;99.90;;;;;;5036316;28;20525;-53
2021/05/31 05:32:59;;;;;;;11.53;10.33;;;11.70;99.90;;;;;;5039181;28;21006;-48
2021/05/31 05:35:29;;;;;;;12.00;9.63;;;11.80;99.90;;;;;;5039723;28;20454;-55
2021/05/31 05:41:15;;;;;;;15.57;9.50;;;12.10;99.90;;;;;;5036569;28;20862;-49
2021/05/31 05:46:44;;;;;;;12.07;10.20;;;12.60;99.90;;;;;;5004073;28;20489;-52
2021/05/31 05:49:13;;;;;;;14.60;10.43;;;12.90;99.90;;;;;;5040130;28;20920;-48
2021/05/31 05:51:39;;;;;;;12.73;10.33;;;13.20;99.90;;;;;;5039904;28;20949;-56
2021/05/31 05:54:08;;;;;;;24.20;11.90;;;13.60;99.90;;;;;;5039679;28;20767;-56
2021/05/31 05:56:38;;;;;;;9.93;8.93;;;13.80;99.90;;;;;;5038079;28;20962;-53
2021/05/31 05:59:04;;;;;;;13.93;9.50;;;14.10;99.90;;;;;;5038473;28;20847;-54
2021/05/31 06:01:31;;;;;;;12.30;10.43;;;14.40;99.90;;;;;;5037760;28;20463;-53
2021/05/31 06:03:57;;;;;;;11.40;10.30;;;14.70;99.90;;;;;;5026805;28;20474;-50
2021/05/31 06:06:26;;;;;;;12.37;9.97;;;15.00;99.90;;;;;;5027210;28;20459;-50
2021/05/31 06:08:53;;;;;;;10.70;9.37;;;15.40;99.90;;;;;;5030365;28;20475;-48
2021/05/31 06:11:20;;;;;;;13.20;9.83;;;15.60;99.90;;;;;;5036179;28;20534;-46
2021/05/31 06:13:52;;;;;;;10.77;8.70;;;15.90;99.90;;;;;;5025874;28;20538;-51
2021/05/31 06:16:19;;;;;;;9.87;8.87;;;16.20;99.90;;;;;;5019592;28;20563;-46
2021/05/31 06:18:45;;;;;;;9.40;8.37;;;16.30;99.90;;;;;;5019619;28;20904;-45
2021/05/31 06:21:12;;;;;;;13.63;9.07;;;16.60;99.90;;;;;;5023223;28;20585;-46
2021/05/31 06:23:38;;;;;;;10.33;8.40;;;17.00;99.90;;;;;;5039496;28;20455;-46
2021/05/31 06:26:05;;;;;;;10.83;9.73;;;17.30;99.90;;;;;;5039544;28;20883;-48
2021/05/31 06:28:32;;;;;;;9.97;8.97;;;17.60;99.90;;;;;;5038866;28;20459;-49
2021/05/31 06:31:00;;;;;;;10.67;9.67;;;18.00;99.90;;;;;;5039423;28;20896;-48
2021/05/31 06:33:26;;;;;;;11.87;8.37;;;18.30;99.90;;;;;;5038873;28;20467;-50
2021/05/31 06:35:55;;;;;;;11.37;9.67;;;18.40;99.90;;;;;;5039280;28;20458;-51
2021/05/31 06:38:21;;;;;;;9.37;8.40;;;18.70;99.90;;;;;;5037717;28;20467;-54
2021/05/31 06:40:49;;;;;;;9.00;7.80;;;19.00;99.90;;;;;;5038932;28;20474;-56
2021/05/31 06:43:16;;;;;;;9.97;8.53;;;19.30;99.30;;;;;;5039049;28;20526;-51
2021/05/31 06:45:43;;;;;;;11.20;9.03;;;19.70;98.60;;;;;;5039169;28;20554;-55
2021/05/31 06:48:13;;;;;;;9.00;8.10;;;19.70;93.90;;;;;;5033923;28;20502;-50
2021/05/31 06:50:39;;;;;;;12.80;8.80;;;19.70;91.40;;;;;;5038546;28;20808;-51
2021/05/31 06:53:09;;;;;;;11.10;7.70;;;19.60;94.60;;;;;;5038812;28;20474;-55
2021/05/31 06:55:39;;;;;;;12.03;7.90;;;20.30;94.70;;;;;;5038226;28;20467;-54
2021/05/31 06:58:09;;;;;;;9.93;7.60;;;20.90;91.20;;;;;;5038225;28;20557;-49
2021/05/31 07:00:43;;;;;;;8.50;7.47;;;21.20;85.70;;;;;;5038756;28;20462;-53
2021/05/31 07:03:11;;;;;;;8.67;7.00;;;21.40;87.60;;;;;;5032149;28;20442;-46
2021/05/31 07:05:38;;;;;;;8.27;7.40;;;21.50;85.40;;;;;;5033690;28;20467;-48
2021/05/31 07:08:08;;;;;;;7.30;6.50;;;21.90;77.90;;;;;;5036541;28;20540;-53
2021/05/31 07:10:34;;;;;;;12.13;7.10;;;22.30;73.20;;;;;;5038346;28;20459;-54
2021/05/31 07:13:04;;;;;;;7.33;6.33;;;22.40;67.80;;;;;;5037162;28;20513;-52
2021/05/31 07:15:34;;;;;;;8.40;6.43;;;22.50;68.70;;;;;;5038143;28;20495;-50
2021/05/31 07:18:01;;;;;;;7.77;5.67;;;22.60;65.80;;;;;;5037924;28;20475;-50
2021/05/31 07:20:29;;;;;;;7.47;6.60;;;22.90;65.70;;;;;;5038284;28;20462;-47
2021/05/31 07:22:58;;;;;;;7.37;5.90;;;22.80;64.00;;;;;;5031004;28;20860;-53
2021/05/31 07:25:25;;;;;;;7.63;6.10;;;22.30;63.50;;;;;;5037388;28;20589;-54
2021/05/31 07:27:54;;;;;;;6.80;5.77;;;22.50;72.10;;;;;;5038403;28;20762;-53
2021/05/31 07:30:23;;;;;;;7.53;5.73;;;23.10;68.10;;;;;;5037995;28;20502;-57
2021/05/31 07:32:52;;;;;;;6.37;5.87;;;23.20;63.10;;;;;;5037941;28;20463;-54
2021/05/31 07:35:19;;;;;;;6.90;6.27;;;23.40;61.20;;;;;;5037742;28;20502;-57
2021/05/31 07:37:47;;;;;;;6.10;5.50;;;23.60;61.60;;;;;;5037997;28;20883;-53
2021/05/31 07:40:17;;;;;;;6.70;5.57;;;23.60;62.50;;;;;;5017698;28;20460;-50
2021/05/31 07:42:45;;;;;;;10.30;6.67;;;23.90;56.70;;;;;;5018353;28;20468;-51
2021/05/31 07:45:13;;;;;;;6.63;6.03;;;23.90;57.30;;;;;;5018083;28;20463;-50
2021/05/31 07:47:43;;;;;;;5.80;5.30;;;24.20;58.60;;;;;;5017986;28;20805;-47
2021/05/31 07:50:14;;;;;;;6.60;6.00;;;24.60;58.10;;;;;;5017847;28;20460;-46
2021/05/31 07:52:40;;;;;;;5.57;5.07;;;24.90;56.00;;;;;;5018068;28;20513;-48
2021/05/31 07:55:15;;;;;;;6.80;6.30;;;24.70;53.30;;;;;;5022726;28;20927;-50
2021/05/31 07:57:43;;;;;;;6.30;5.53;;;24.80;56.20;;;;;;5036291;28;20760;-49
2021/05/31 08:00:14;;;;;;;6.50;5.90;;;23.80;52.80;;;;;;5037273;28;20455;-47
2021/05/31 08:02:43;;;;;;;6.97;6.43;;;24.00;54.30;;;;;;5033058;28;20623;-46
2021/05/31 08:05:12;;;;;;;6.20;5.70;;;24.60;54.10;;;;;;5027852;28;20522;-49
2021/05/31 08:07:43;;;;;;;6.53;6.03;;;24.60;52.60;;;;;;5036501;28;20549;-46
2021/05/31 08:10:12;;;;;;;7.57;6.03;;;25.00;51.10;;;;;;5036723;28;20467;-46
2021/05/31 08:12:39;;;;;;;6.63;6.03;;;25.30;50.50;;;;;;5036842;28;20455;-47
2021/05/31 08:15:08;;;;;;;6.90;6.30;;;25.10;51.50;;;;;;5037394;28;20491;-47
2021/05/31 08:17:35;;;;;;;5.80;5.30;;;25.30;48.30;;;;;;5037881;28;20462;-50
2021/05/31 08:20:01;;;;;;;6.03;5.50;;;24.70;48.60;;;;;;5036782;28;20463;-53
2021/05/31 08:22:28;;;;;;;6.47;5.77;;;24.60;49.70;;;;;;5036582;28;20482;-54
2021/05/31 08:24:55;;;;;;;6.27;5.70;;;23.90;49.60;;;;;;5036623;28;20466;-55
2021/05/31 08:27:26;;;;;;;6.87;6.23;;;24.50;52.20;;;;;;5037048;28;20832;-56
2021/05/31 08:29:57;;;;;;;8.20;6.33;;;25.20;49.80;;;;;;5037443;28;20753;-57
2021/05/31 08:32:24;;;;;;;5.60;5.20;;;25.10;48.20;;;;;;5037310;28;20474;-55
2021/05/31 08:34:51;;;;;;;5.93;5.33;;;25.10;49.10;;;;;;5037015;28;20502;-50
2021/05/31 08:37:20;;;;;;;6.53;5.77;;;25.00;48.40;;;;;;5036852;28;20467;-48
2021/05/31 08:39:54;;;;;;;6.13;5.73;;;25.30;48.00;;;;;;5036999;28;20470;-54
2021/05/31 08:42:21;;;;;;;9.13;6.27;;;25.10;48.00;;;;;;5037410;28;20918;-52
2021/05/31 08:44:49;;;;;;;6.23;5.53;;;24.90;48.80;;;;;;5036698;28;20868;-52
2021/05/31 08:47:16;;;;;;;6.20;5.30;;;24.70;49.10;;;;;;5031748;28;20474;-54
2021/05/31 08:49:45;;;;;;;7.30;5.80;;;24.80;48.60;;;;;;5036748;28;20474;-46
2021/05/31 08:52:11;;;;;;;6.20;5.60;;;24.60;49.90;;;;;;5037176;28;20516;-44
2021/05/31 08:54:38;;;;;;;5.80;5.30;;;24.60;47.90;;;;;;5036956;28;20506;-44
2021/05/31 08:57:05;;;;;;;6.37;5.77;;;24.90;48.50;;;;;;5036452;28;20467;-48
2021/05/31 08:59:31;;;;;;;7.23;5.90;;;25.50;48.20;;;;;;5036250;28;20521;-47
2021/05/31 09:01:59;;;;;;;6.67;6.17;;;25.50;48.30;;;;;;5037068;28;20469;-51
2021/05/31 09:04:26;;;;;;;7.90;6.30;;;25.10;47.50;;;;;;5024960;28;20470;-49
2021/05/31 09:06:56;;;;;;;6.37;5.83;;;25.30;49.40;;;;;;5035878;28;20459;-53
2021/05/31 09:09:38;;;;;;;5.87;5.37;;;25.90;48.70;;;;;;5036122;28;20467;-54
2021/05/31 09:12:07;;;;;;;5.87;5.37;;;25.70;45.60;;;;;;5037151;28;20469;-55
2021/05/31 09:14:34;;;;;;;6.97;5.97;;;25.20;46.00;;;;;;5017034;28;20550;-54
2021/05/31 09:17:02;;;;;;;7.20;6.20;;;25.60;48.20;;;;;;5018293;28;20747;-52
2021/05/31 09:19:29;;;;;;;7.17;6.47;;;25.70;46.60;;;;;;5036308;28;20462;-53
2021/05/31 09:21:55;;;;;;;6.90;6.30;;;25.90;48.30;;;;;;5036640;28;20459;-50
2021/05/31 09:24:24;;;;;;;7.23;6.63;;;26.10;48.00;;;;;;5036735;28;20472;-53
2021/05/31 09:26:53;;;;;;;6.37;5.77;;;26.60;46.90;;;;;;5036477;28;20820;-47
2021/05/31 09:29:24;;;;;;;9.77;5.73;;;26.60;45.70;;;;;;5036311;28;20467;-50
2021/05/31 09:32:01;;;;;;;5.70;5.20;;;25.40;46.50;;;;;;5036409;28;20811;-51
2021/05/31 09:34:29;;;;;;;7.10;5.73;;;25.00;46.60;;;;;;5036931;28;20502;-44
2021/05/31 09:36:58;;;;;;;6.13;5.63;;;25.30;47.90;;;;;;5040109;28;20462;-43
2021/05/31 09:39:35;;;;;;;8.17;6.00;;;25.80;46.80;;;;;;5038812;28;20752;-43
2021/05/31 09:42:05;;;;;;;7.73;6.00;;;26.50;44.80;;;;;;5039599;28;20474;-47
2021/05/31 09:44:33;;;;;;;6.80;6.10;;;26.50;44.70;;;;;;5040083;28;20459;-46
2021/05/31 09:47:02;;;;;;;6.40;5.90;;;25.30;44.10;;;;;;5039322;28;20471;-44
2021/05/31 09:49:30;;;;;;;6.20;5.63;;;25.80;45.50;;;;;;5039577;28;20498;-43
2021/05/31 09:52:00;;;;;;;7.40;5.50;;;26.30;44.90;;;;;;5038984;28;20467;-43
2021/05/31 09:54:32;;;;;;;5.40;4.90;;;25.40;45.30;;;;;;5040060;28;20782;-43
2021/05/31 09:57:00;;;;;;;5.63;5.13;;;26.20;46.80;;;;;;5039300;28;20463;-50
2021/05/31 09:59:30;;;;;;;7.43;6.30;;;26.20;45.80;;;;;;5039624;28;20765;-46
2021/05/31 10:02:02;;;;;;;6.03;5.53;;;25.90;44.10;;;;;;5039629;28;20815;-47
2021/05/31 10:04:42;;;;;;;6.30;4.97;;;26.60;44.60;;;;;;5028755;28;20490;-47
2021/05/31 10:07:22;;;;;;;5.93;5.53;;;26.90;43.40;;;;;;5027313;28;20554;-47
2021/05/31 10:09:49;;;;;;;5.30;4.80;;;26.50;44.00;;;;;;5034590;28;20465;-54
2021/05/31 10:12:17;;;;;;;6.30;5.70;;;26.70;44.80;;;;;;5038510;28;20438;-47
2021/05/31 10:14:46;;;;;;;5.40;5.00;;;26.90;42.30;;;;;;5038920;28;20775;-47
2021/05/31 10:17:14;;;;;;;5.90;5.20;;;27.20;42.90;;;;;;5039329;28;20467;-48
2021/05/31 10:19:42;;;;;;;6.13;5.60;;;27.20;41.80;;;;;;5039281;28;20842;-51
2021/05/31 10:22:11;;;;;;;5.27;4.83;;;27.80;41.10;;;;;;5037996;28;20767;-49
2021/05/31 10:24:41;;;;;;;4.90;4.50;;;28.00;41.30;;;;;;5039381;28;20836;-53
2021/05/31 10:27:10;;;;;;;6.10;5.63;;;27.50;41.00;;;;;;5039033;28;20912;-51
2021/05/31 10:29:39;;;;;;;7.90;5.70;;;27.90;41.40;;;;;;5039386;28;20895;-46
2021/05/31 10:32:11;;;;;;;6.57;6.07;;;28.10;42.00;;;;;;5038938;28;20467;-53
2021/05/31 10:34:46;;;;;;;7.40;6.67;;;28.20;41.80;;;;;;5038005;28;20958;-48
2021/05/31 10:37:24;;;;;;;6.70;6.13;;;27.90;40.50;;;;;;5038704;28;20462;-50
2021/05/31 10:40:07;;;;;;;7.50;6.17;;;27.20;43.40;;;;;;5022300;28;20483;-52
2021/05/31 10:42:45;;;;;;;6.47;5.97;;;26.90;41.90;;;;;;5019333;28;20504;-46
2021/05/31 10:45:19;;;;;;;5.77;5.27;;;27.10;43.20;;;;;;5019270;28;20537;-51
2021/05/31 10:47:56;;;;;;;6.67;6.27;;;27.20;43.30;;;;;;5018280;28;20954;-51
2021/05/31 10:50:30;;;;;;;6.43;5.93;;;27.50;42.70;;;;;;5018845;28;20463;-48
2021/05/31 10:52:57;;;;;;;6.40;5.80;;;27.10;42.50;;;;;;5018794;28;20472;-47
2021/05/31 10:55:27;;;;;;;6.87;6.37;;;26.90;42.30;;;;;;5018230;28;20594;-53
2021/05/31 10:57:55;;;;;;;6.17;5.23;;;26.30;42.10;;;;;;5018927;28;20464;-43
2021/05/31 11:00:27;;;;;;;7.13;5.73;;;27.00;42.70;;;;;;5018901;28;20482;-45
2021/05/31 11:03:09;;;;;;;5.60;5.03;;;27.60;41.20;;;;;;5018218;28;22083;-43
2021/05/31 11:05:42;;;;;;;5.37;4.87;;;27.70;39.70;;;;;;5032294;28;20474;-45
2021/05/31 11:08:11;;;;;;;6.40;5.57;;;28.00;40.40;;;;;;5037309;28;20462;-43
2021/05/31 11:10:40;;;;;;;5.33;5.03;;;28.00;40.10;;;;;;5038644;28;20565;-43
2021/05/31 11:13:11;;;;;;;6.10;5.60;;;27.90;39.50;;;;;;5037269;28;20543;-50
2021/05/31 11:15:38;;;;;;;4.90;4.60;;;27.80;39.90;;;;;;5038107;28;20499;-50
2021/05/31 11:18:05;;;;;;;7.03;6.40;;;28.00;40.20;;;;;;5037976;28;20910;-48
2021/05/31 11:20:33;;;;;;;6.00;5.60;;;27.50;39.20;;;;;;5037549;28;20872;-45
2021/05/31 11:23:03;;;;;;;5.40;4.90;;;26.60;40.80;;;;;;5037166;28;20463;-44
2021/05/31 11:25:31;;;;;;;5.33;4.83;;;27.30;40.10;;;;;;5038099;28;20465;-44
2021/05/31 11:28:00;;;;;;;5.77;5.27;;;27.20;39.10;;;;;;5038275;28;20463;-47
2021/05/31 11:30:29;;;;;;;6.13;5.63;;;26.90;39.60;;;;;;5037635;28;20466;-47
2021/05/31 11:32:59;;;;;;;5.50;5.10;;;27.00;39.40;;;;;;5037201;28;20755;-48
2021/05/31 11:35:26;;;;;;;7.13;5.30;;;27.70;40.10;;;;;;5037157;28;20495;-50
2021/05/31 11:37:54;;;;;;;5.77;5.37;;;27.90;39.90;;;;;;5037735;28;20463;-48
2021/05/31 11:40:27;;;;;;;5.37;4.87;;;27.70;39.50;;;;;;5033460;28;20989;-46
2021/05/31 11:42:56;;;;;;;5.97;4.57;;;27.60;39.10;;;;;;5020179;28;20463;-50
2021/05/31 11:45:25;;;;;;;5.10;4.70;;;27.50;38.80;;;;;;5037540;28;20462;-49
2021/05/31 11:47:57;;;;;;;6.30;5.80;;;27.60;39.10;;;;;;5037046;28;20487;-51
2021/05/31 11:50:26;;;;;;;5.40;4.87;;;28.00;38.50;;;;;;5037618;28;20771;-48
2021/05/31 11:52:52;;;;;;;5.40;5.00;;;28.00;39.40;;;;;;5037957;28;20463;-46
2021/05/31 11:55:28;;;;;;;4.63;4.33;;;28.30;39.40;;;;;;5037387;28;20499;-52
2021/05/31 11:57:55;;;;;;;5.73;5.33;;;27.60;38.40;;;;;;5017838;28;20492;-47
2021/05/31 12:00:23;;;;;;;5.00;4.60;;;28.80;37.70;;;;;;5017424;28;20782;-51
2021/05/31 12:02:50;;;;;;;5.87;5.37;;;29.30;37.30;;;;;;5017677;28;20487;-50
2021/05/31 12:05:29;;;;;;;5.33;4.67;;;28.90;38.00;;;;;;5030413;28;20467;-50
2021/05/31 12:08:01;;;;;;;5.50;5.10;;;29.00;37.90;;;;;;5036314;28;20463;-54
2021/05/31 12:10:29;;;;;;;5.90;5.40;;;28.80;38.30;;;;;;5037016;28;20467;-50
2021/05/31 12:12:58;;;;;;;5.97;5.47;;;28.70;38.50;;;;;;5036390;28;20490;-44
2021/05/31 12:15:25;;;;;;;5.30;4.90;;;28.40;37.50;;;;;;5036540;28;20495;-49
2021/05/31 12:17:53;;;;;;;5.33;4.93;;;28.80;40.70;;;;;;5037337;28;20768;-52
2021/05/31 12:20:23;;;;;;;5.40;4.90;;;29.30;37.80;;;;;;5037313;28;20470;-53
2021/05/31 12:22:50;;;;;;;6.40;6.00;;;29.40;37.30;;;;;;5036757;28;20459;-51
2021/05/31 12:25:20;;;;;;;5.90;5.50;;;29.10;37.70;;;;;;5036733;28;20467;-48
2021/05/31 12:27:52;;;;;;;6.10;5.60;;;28.40;39.30;;;;;;5037629;28;20467;-48
2021/05/31 12:30:19;;;;;;;6.17;5.70;;;29.00;38.70;;;;;;5036450;28;20506;-49
2021/05/31 12:32:47;;;;;;;6.30;5.77;;;28.20;38.90;;;;;;5036669;28;20475;-45
2021/05/31 12:35:14;;;;;;;5.80;5.40;;;28.20;41.10;;;;;;5036405;28;20549;-49
2021/05/31 12:37:46;;;;;;;7.63;5.60;;;28.00;40.20;;;;;;5037111;28;20534;-52
2021/05/31 12:40:14;;;;;;;6.53;6.03;;;28.30;40.40;;;;;;5017773;28;20507;-56
2021/05/31 12:42:47;;;;;;;6.83;6.23;;;28.60;40.00;;;;;;5017103;28;20470;-54
2021/05/31 12:45:21;;;;;;;6.57;5.97;;;28.90;40.60;;;;;;5016775;28;20466;-48
2021/05/31 12:47:51;;;;;;;6.37;5.97;;;29.00;40.00;;;;;;5017186;28;20526;-51
2021/05/31 12:50:24;;;;;;;5.83;5.43;;;29.30;39.20;;;;;;5017229;28;20471;-51
2021/05/31 12:52:52;;;;;;;6.30;5.80;;;29.30;41.70;;;;;;5016642;28;20755;-50
2021/05/31 12:55:24;;;;;;;6.43;5.93;;;29.70;39.10;;;;;;5017247;28;20499;-45
2021/05/31 12:57:53;;;;;;;6.90;6.30;;;29.70;39.70;;;;;;5017549;28;20947;-46
2021/05/31 13:00:24;;;;;;;6.70;6.07;;;29.50;39.00;;;;;;5017313;28;20812;-51
2021/05/31 13:02:55;;;;;;;6.77;6.17;;;29.70;39.20;;;;;;5016222;28;20479;-44
2021/05/31 13:05:23;;;;;;;6.23;5.70;;;29.90;40.70;;;;;;5030422;28;20524;-52
2021/05/31 13:07:51;;;;;;;7.27;6.67;;;30.00;39.60;;;;;;5036570;28;20459;-52
2021/05/31 13:10:22;;;;;;;6.83;6.33;;;30.10;38.60;;;;;;5037647;28;20502;-48
2021/05/31 13:12:52;;;;;;;7.40;6.50;;;30.00;39.60;;;;;;5040487;28;20871;-53
2021/05/31 13:15:22;;;;;;;7.10;6.40;;;29.50;39.90;;;;;;5040333;28;20498;-47
2021/05/31 13:17:51;;;;;;;7.00;6.33;;;29.60;41.40;;;;;;5040324;28;20540;-51
2021/05/31 13:20:18;;;;;;;7.23;6.63;;;29.60;38.80;;;;;;5040623;28;20467;-47
2021/05/31 13:22:55;;;;;;;6.77;6.20;;;27.90;40.50;;;;;;5039886;28;20461;-46
2021/05/31 13:25:22;;;;;;;7.37;6.70;;;27.90;42.80;;;;;;5027277;28;20459;-47
2021/05/31 13:27:48;;;;;;;7.30;6.70;;;28.30;42.20;;;;;;5020585;28;20478;-47
2021/05/31 13:30:18;;;;;;;6.70;6.20;;;28.70;42.60;;;;;;5020499;28;20780;-47
2021/05/31 13:32:55;;;;;;;7.10;6.40;;;29.00;41.10;;;;;;5020934;28;20796;-53
2021/05/31 13:35:22;;;;;;;7.17;6.50;;;29.00;40.80;;;;;;5020521;28;20982;-55
2021/05/31 13:37:50;;;;;;;7.20;6.60;;;28.00;42.30;;;;;;5020649;28;20525;-53
2021/05/31 13:40:18;;;;;;;7.27;6.67;;;27.30;41.90;;;;;;5040129;28;20467;-51
2021/05/31 13:42:55;;;;;;;7.40;6.80;;;26.10;43.90;;;;;;5022758;28;20765;-56